createdAt,value
2023-04-22T00:01:51.476Z,95135.03
2023-04-22T00:06:54.734Z,95134.78
2023-04-22T00:11:58.214Z,95129.94
2023-04-22T00:17:00.826Z,95123.47
2023-04-22T00:22:03.449Z,95124.84
2023-04-22T00:27:05.765Z,95116.59
2023-04-22T00:32:08.887Z,95119.03
2023-04-22T00:37:13.270Z,95125.16
2023-04-22T00:42:16.387Z,95127.31
2023-04-22T00:47:18.756Z,95129.56
2023-04-22T00:52:23.010Z,95126.88
2023-04-22T00:57:26.196Z,95120.44
2023-04-22T01:02:28.736Z,95119.66
2023-04-22T01:07:31.256Z,95130.63
2023-04-22T01:12:34.810Z,95120.47
2023-04-22T01:17:38.613Z,95126.66
2023-04-22T01:22:41.060Z,95131.72
2023-04-22T01:27:44.115Z,95135.50
2023-04-22T01:32:46.851Z,95132.81
2023-04-22T01:37:49.344Z,95130.72
2023-04-22T01:42:51.798Z,95141.41
2023-04-22T01:47:54.922Z,95135.00
2023-04-22T01:52:57.319Z,95139.84
2023-04-22T01:58:00.191Z,95141.50
2023-04-22T02:03:03.405Z,95140.97
2023-04-22T02:08:06.524Z,95139.91
2023-04-22T02:13:09.674Z,95140.72
2023-04-22T02:18:13.003Z,95124.94
2023-04-22T02:23:16.185Z,95145.25
2023-04-22T02:28:19.364Z,95139.97
2023-04-22T02:33:21.838Z,95136.72
2023-04-22T02:38:24.147Z,95140.47
2023-04-22T02:43:26.789Z,95136.75
2023-04-22T02:48:29.206Z,95138.09
2023-04-22T02:53:32.380Z,95138.34
2023-04-22T02:58:34.900Z,95133.03
2023-04-22T03:03:37.787Z,95136.50
2023-04-22T03:08:40.369Z,95127.97
2023-04-22T03:13:42.670Z,95133.03
2023-04-22T03:18:45.870Z,95127.69
2023-04-22T03:23:48.562Z,95120.47
2023-04-22T03:28:50.902Z,95117.00
2023-04-22T03:33:54.717Z,95118.59
2023-04-22T03:38:56.994Z,95116.47
2023-04-22T03:44:01.802Z,95125.00
2023-04-22T03:49:04.403Z,95129.81
2023-04-22T03:54:06.955Z,95131.66
2023-04-22T03:59:09.290Z,95139.41
2023-04-22T04:04:12.235Z,95136.19
2023-04-22T04:09:15.214Z,95142.88
2023-04-22T04:14:17.966Z,95140.47
2023-04-22T04:19:21.682Z,95134.09
2023-04-22T04:24:24.056Z,95137.28
2023-04-22T04:29:26.982Z,95129.28
2023-04-22T04:34:29.340Z,95137.84
2023-04-22T04:39:32.996Z,95120.19
2023-04-22T04:44:36.010Z,95126.59
2023-04-22T04:49:43.598Z,95128.91
2023-04-22T04:54:46.481Z,95132.22
2023-04-22T04:59:48.793Z,95136.75
2023-04-22T05:04:51.342Z,95124.09
2023-04-22T05:10:03.425Z,95117.63
2023-04-22T05:15:06.623Z,95121.22
2023-04-22T05:20:09.335Z,95113.78
2023-04-22T05:25:11.709Z,95115.47
2023-04-22T05:30:14.447Z,95106.22
2023-04-22T05:35:16.869Z,95109.72
2023-04-22T05:40:19.807Z,95116.34
2023-04-22T05:45:22.153Z,95118.03
2023-04-22T05:50:25.778Z,95120.94
2023-04-22T05:55:28.994Z,95127.97
2023-04-22T06:00:31.561Z,95139.72
2023-04-22T06:05:34.510Z,95139.34
2023-04-22T06:10:37.215Z,95149.28
2023-04-22T06:15:39.674Z,95152.47
2023-04-22T06:20:42.153Z,95155.28
2023-04-22T06:25:44.729Z,95151.50
2023-04-22T06:30:47.888Z,95153.13
2023-04-22T06:35:51.048Z,95141.56
2023-04-22T06:40:54.382Z,95152.41
2023-04-22T06:45:57.530Z,95149.38
2023-04-22T06:51:01.252Z,95143.31
2023-04-22T06:56:03.569Z,95155.25
2023-04-22T07:01:06.760Z,95143.38
2023-04-22T07:06:10.115Z,95148.09
2023-04-22T07:11:14.264Z,95150.66
2023-04-22T07:16:17.592Z,95143.38
2023-04-22T07:21:20.202Z,95138.16
2023-04-22T07:26:22.737Z,95132.59
2023-04-22T07:31:25.914Z,95126.75
2023-04-22T07:36:28.372Z,95122.31
2023-04-22T07:41:31.857Z,95126.25
2023-04-22T07:46:34.136Z,95132.84
2023-04-22T07:51:36.761Z,95136.56
2023-04-22T07:56:39.175Z,95134.09
2023-04-22T08:01:41.662Z,95128.81
2023-04-22T08:06:44.047Z,95132.38
2023-04-22T08:11:47.155Z,95132.78
2023-04-22T08:16:49.727Z,95129.47
2023-04-22T08:21:52.520Z,95139.53
2023-04-22T08:26:55.241Z,95135.75
2023-04-22T08:31:58.294Z,95131.91
2023-04-22T08:37:00.963Z,95139.00
2023-04-22T08:42:04.175Z,95141.16
2023-04-22T08:47:07.485Z,95138.06
2023-04-22T08:52:12.722Z,95129.47
2023-04-22T08:57:15.218Z,95132.00
2023-04-22T09:02:17.635Z,95133.25
2023-04-22T09:07:20.976Z,95123.69
2023-04-22T09:12:23.465Z,95122.56
2023-04-22T09:17:26.519Z,95122.56
2023-04-22T09:22:29.159Z,95119.84
2023-04-22T09:27:34.041Z,95111.03
2023-04-22T09:32:36.835Z,95107.16
2023-04-22T09:37:48.864Z,95114.88
2023-04-22T09:42:52.071Z,95103.84
2023-04-22T09:47:54.513Z,95101.25
2023-04-22T09:52:57.219Z,95095.31
2023-04-22T09:57:59.598Z,95099.41
2023-04-22T10:03:03.276Z,95095.75
2023-04-22T10:08:06.227Z,95084.19
2023-04-22T10:13:08.910Z,95091.03
2023-04-22T10:18:11.985Z,95084.00
2023-04-22T10:23:14.422Z,95080.81
2023-04-22T10:28:16.868Z,95063.81
2023-04-22T10:33:19.206Z,95067.13
2023-04-22T10:38:21.524Z,95067.19
2023-04-22T10:43:24.120Z,95071.41
2023-04-22T10:48:26.416Z,95063.75
2023-04-22T10:53:29.067Z,95049.41
2023-04-22T10:58:31.378Z,95047.09
2023-04-22T11:03:34.434Z,95046.94
2023-04-22T11:08:36.877Z,95050.09
2023-04-22T11:13:39.185Z,95045.28
2023-04-22T11:18:41.654Z,95042.72
2023-04-22T11:23:43.991Z,95034.34
2023-04-22T11:28:46.291Z,95036.84
2023-04-22T11:33:50.226Z,95037.44
2023-04-22T11:38:54.164Z,95026.00
2023-04-22T11:43:56.474Z,95024.50
2023-04-22T11:48:58.771Z,95027.75
2023-04-22T11:54:01.113Z,95031.38
2023-04-22T11:59:03.471Z,95023.22
2023-04-22T12:04:08.096Z,95028.28
2023-04-22T12:09:11.986Z,95023.59
2023-04-22T12:14:15.690Z,95017.94
2023-04-22T12:19:18.105Z,95021.41
2023-04-22T12:24:22.302Z,95019.09
2023-04-22T12:29:24.791Z,95007.28
2023-04-22T12:34:27.182Z,95012.44
2023-04-22T12:39:29.471Z,95005.50
2023-04-22T12:44:33.907Z,94994.66
2023-04-22T12:49:36.621Z,95007.44
2023-04-22T12:54:39.104Z,95010.34
2023-04-22T12:59:41.804Z,94999.13
2023-04-22T13:04:44.485Z,94988.47
2023-04-22T13:09:47.674Z,94989.16
2023-04-22T13:14:49.961Z,94986.88
2023-04-22T13:19:52.681Z,94987.03
2023-04-22T13:24:55.787Z,94979.75
2023-04-22T13:29:58.366Z,94970.56
2023-04-22T13:35:02.853Z,94964.88
2023-04-22T13:40:06.337Z,94956.38
2023-04-22T13:45:09.014Z,94951.16
2023-04-22T13:50:11.417Z,94945.34
2023-04-22T13:55:15.144Z,94944.88
2023-04-22T14:00:17.760Z,94936.94
2023-04-22T14:05:20.311Z,94933.16
2023-04-22T14:10:23.447Z,94922.97
2023-04-22T14:20:28.891Z,94921.88
2023-04-22T14:25:31.210Z,94917.50
2023-04-22T14:30:34.385Z,94922.97
2023-04-22T14:35:36.678Z,94923.47
2023-04-22T14:40:39.070Z,94920.56
2023-04-22T14:45:41.316Z,94924.66
2023-04-22T14:50:44.053Z,94916.56
2023-04-22T14:55:46.566Z,94912.97
2023-04-22T15:00:49.061Z,94907.81
2023-04-22T15:05:52.387Z,94909.59
2023-04-22T15:10:55.127Z,94910.38
2023-04-22T15:15:57.853Z,94917.31
2023-04-22T15:21:00.136Z,94906.84
2023-04-22T15:26:03.417Z,94909.56
2023-04-22T15:31:06.216Z,94904.88
2023-04-22T15:36:09.592Z,94906.00
2023-04-22T15:41:12.029Z,94906.06
2023-04-22T15:46:15.347Z,94908.50
2023-04-22T15:51:18.886Z,94914.41
2023-04-22T15:56:21.897Z,94915.28
2023-04-22T16:01:26.590Z,94917.06
2023-04-22T16:06:29.120Z,94911.38
2023-04-22T16:11:32.383Z,94908.38
2023-04-22T16:16:35.649Z,94916.09
2023-04-22T16:21:38.077Z,94916.91
2023-04-22T16:26:40.590Z,94913.47
2023-04-22T16:31:43.769Z,94921.78
2023-04-22T16:36:46.916Z,94924.44
2023-04-22T16:41:49.278Z,94917.09
2023-04-22T16:46:51.697Z,94906.97
2023-04-22T16:51:54.355Z,94901.53
2023-04-22T16:56:58.130Z,94903.97
2023-04-22T17:02:00.594Z,94909.69
2023-04-22T17:07:03.169Z,94903.88
2023-04-22T17:12:06.482Z,94910.06
2023-04-22T17:17:08.970Z,94909.72
2023-04-22T17:22:12.941Z,94906.81
2023-04-22T17:27:16.331Z,94900.88
2023-04-22T17:32:18.700Z,94905.78
2023-04-22T17:37:21.010Z,94910.50
2023-04-22T17:42:27.224Z,94905.47
2023-04-22T17:47:35.418Z,94910.44
2023-04-22T17:52:38.505Z,94911.50
2023-04-22T17:57:43.865Z,94922.78
2023-04-22T18:02:46.555Z,94910.56
2023-04-22T18:07:49.025Z,94926.34
2023-04-22T18:12:51.474Z,94930.66
2023-04-22T18:17:53.766Z,94936.56
2023-04-22T18:22:57.191Z,94941.47
2023-04-22T18:27:59.484Z,94935.47
2023-04-22T18:33:04.598Z,94937.16
2023-04-22T18:38:07.849Z,94944.69
2023-04-22T18:43:10.945Z,94954.63
2023-04-22T18:48:13.608Z,94955.03
2023-04-22T18:53:16.261Z,94964.19
2023-04-22T18:58:20.687Z,94964.94
2023-04-22T19:03:23.934Z,94976.34
2023-04-22T19:08:27.097Z,94980.88
2023-04-22T19:13:30.312Z,94987.88
2023-04-22T19:18:33.699Z,94993.03
2023-04-22T19:23:37.250Z,94995.69
2023-04-22T19:28:39.774Z,94996.66
2023-04-22T19:33:44.605Z,95002.00
2023-04-22T19:38:46.961Z,95008.38
2023-04-22T19:43:49.739Z,94999.16
2023-04-22T19:48:52.329Z,95015.56
2023-04-22T19:53:55.063Z,95017.63
2023-04-22T19:58:58.286Z,95019.56
2023-04-22T20:04:00.961Z,95016.25
2023-04-22T20:09:05.388Z,95020.78
2023-04-22T20:14:09.852Z,95029.72
2023-04-22T20:19:13.869Z,95030.13
2023-04-22T20:24:19.996Z,95032.59
2023-04-22T20:29:22.544Z,95040.53
2023-04-22T20:34:26.023Z,95042.41
2023-04-22T20:39:28.524Z,95037.75
2023-04-22T20:44:33.807Z,95031.59
2023-04-22T20:49:40.380Z,95033.06
2023-04-22T20:54:44.803Z,95022.53
2023-04-22T20:59:47.559Z,95021.13
2023-04-22T21:04:50.522Z,95030.53
2023-04-22T21:09:53.686Z,95026.25
2023-04-22T21:14:56.230Z,95025.47
2023-04-22T21:20:09.491Z,95022.78
2023-04-22T21:25:12.206Z,95026.78
2023-04-22T21:30:15.016Z,95038.22
2023-04-22T21:35:17.943Z,95045.38
2023-04-22T21:40:20.474Z,95050.28
2023-04-22T21:45:23.640Z,95058.84
2023-04-22T21:50:26.845Z,95063.75
2023-04-22T21:55:29.175Z,95055.94
2023-04-22T22:00:31.615Z,95060.16
2023-04-22T22:05:34.549Z,95052.19
2023-04-22T22:10:37.007Z,95063.13
2023-04-22T22:15:39.482Z,95058.38
2023-04-22T22:20:42.097Z,95063.53
2023-04-22T22:25:45.248Z,95073.34
2023-04-22T22:30:48.631Z,95064.13
2023-04-22T22:35:52.051Z,95068.31
2023-04-22T22:40:54.794Z,95072.66
2023-04-22T22:45:57.596Z,95074.09
2023-04-22T22:51:00.804Z,95089.56
2023-04-22T22:56:04.163Z,95078.56
2023-04-22T23:01:06.537Z,95074.78
2023-04-22T23:06:18.954Z,95072.34
2023-04-22T23:11:23.363Z,95073.69
2023-04-22T23:16:26.338Z,95068.91
2023-04-22T23:21:29.583Z,95079.22
2023-04-22T23:26:31.868Z,95078.94
2023-04-22T23:31:35.194Z,95076.53
2023-04-22T23:36:37.632Z,95073.47
2023-04-22T23:41:39.920Z,95079.66
2023-04-22T23:46:42.397Z,95060.38
2023-04-22T23:51:46.365Z,95070.88
2023-04-22T23:56:48.730Z,95073.38
